METAR AND TAF INFORMATION
METAR FOR UHBB
ADDS - METARS form results

(0412 UTC 01 March 2021)
Data provider http://aviationweather.gov/metar/data/
 
METAR text: UHBB 010400Z 08001MPS 9999 FEW033 M15/M26 Q1030 R36/410250 NOSIG RMK QFE754/1006
Conditions at: UHBB (BLAGOVESHCHENSK , RU) observed 0400 UTC 01 March 2021
Temperature: -15.0°C ( 5°F)
Dewpoint: -26.0°C (-15°F) [RH = 39%]
Pressure (altimeter): 30.41 inches Hg (1030.0 mb)
Winds: from the E (80 degrees) at 2 MPH (2 knots; 1.0 m/s)
Visibility: 6 or more miles (10+ km)
Ceiling: at least 12,000 feet AGL
Clouds: few clouds at 3300 feet AGL
Weather: no significant weather observed at this time

METAR text: UHBB 010330Z 05001MPS CAVOK M16/M26 Q1030 R36/410250 NOSIG RMK QFE755/1006
Conditions at: UHBB (BLAGOVESHCHENSK , RU) observed 0330 UTC 01 March 2021
Temperature: -16.0°C ( 3°F)
Dewpoint: -26.0°C (-15°F) [RH = 42%]
Pressure (altimeter): 30.41 inches Hg (1030.0 mb)
Winds: from the NE (50 degrees) at 2 MPH (2 knots; 1.0 m/s)
Visibility: 6 or more miles (10+ km)
Ceiling: ceiling and visibility are OK
Clouds: unknown
Weather: no significant weather observed at this time

Forecast for: UHBB (BLAGOVESHCHENSK , RU)
Text: TAF UHBB 010142Z 0103/0203 04003G08MPS CAVOK
Forecast period: 0300 to 1000 UTC 01 March 2021
Forecast type: FROM: standard forecast or significant change
Winds: from the NE (40 degrees) at 7 MPH (6 knots; 3.1 m/s)
gusting to 18 MPH (16 knots; 8.2 m/s)
Visibility: 6 or more miles (10+ km)
Ceiling: unknown
Clouds: missing
Weather: NSW  (no significant weather)
Text: TEMPO 0103/0110 09003G08MPS
Forecast period: 0300 to 1000 UTC 01 March 2021
Forecast type: TEMPORARY: The following changes expected for less than half the time period
Winds: from the E (90 degrees) at 7 MPH (6 knots; 3.1 m/s)
gusting to 18 MPH (16 knots; 8.2 m/s)
Visibility: missing
Ceiling: unknown
Clouds: missing
Weather: no significant weather forecast for this period
Text: BECMG 0110/0112 17003MPS
Forecast period: 1000 UTC 01 March 2021 to 0300 UTC 02 March 2021
Forecast type: BECOMING: Conditions expected to become as follows by 1200 UTC 01 March 2021
Winds: from the S (170 degrees) at 7 MPH (6 knots; 3.1 m/s)
Visibility: 6 or more miles (10+ km)
Ceiling: unknown
Clouds: missing
Weather: NSW  (no significant weather)

 AIRPORT MAP

 RUNWAY INFORMATION

 AIRPORT FREQUENCIES
Type PMSV Name BLAGOVESCH Frequency 126.4 MHZ
Type TWR Name BLAGOVESCH Frequency 127.2 MHZ

 AIRPORT NEAR NAVIGATION AIDS
Type VOR-DME Name Blagoveschensk Frequency 113600 KHZ
Type NDB Name Blagoveschensk Frequency 350 KHZ
Type NDB Name Blagoveschensk Frequency 350 KHZ



2018 Air Astana Virtual Airline